sensor_id;sensor_type;location;lat;lon;timestamp;temperature;humidity
9875;DHT22;4976;46.786;7.632;2023-06-14T14:48:37;24.90;99.90
9875;DHT22;4976;46.786;7.632;2023-06-14T14:51:05;25.10;99.90
9875;DHT22;4976;46.786;7.632;2023-06-14T14:53:32;25.10;99.90
9875;DHT22;4976;46.786;7.632;2023-06-14T14:55:59;25.20;99.90
9875;DHT22;4976;46.786;7.632;2023-06-14T14:58:26;25.30;99.90
9875;DHT22;4976;46.786;7.632;2023-06-14T15:00:53;25.40;99.90
9875;DHT22;4976;46.786;7.632;2023-06-14T15:03:20;25.60;99.90
9875;DHT22;4976;46.786;7.632;2023-06-14T15:05:49;25.60;99.90
9875;DHT22;4976;46.786;7.632;2023-06-14T15:08:15;25.40;99.90
9875;DHT22;4976;46.786;7.632;2023-06-14T15:10:42;25.30;99.90
9875;DHT22;4976;46.786;7.632;2023-06-14T15:13:10;25.20;99.90
9875;DHT22;4976;46.786;7.632;2023-06-14T15:15:37;25.50;99.90
9875;DHT22;4976;46.786;7.632;2023-06-14T15:18:04;25.60;99.90
9875;DHT22;4976;46.786;7.632;2023-06-14T15:20:32;25.30;99.90
9875;DHT22;4976;46.786;7.632;2023-06-14T15:23:00;25.20;99.90
9875;DHT22;4976;46.786;7.632;2023-06-14T15:25:28;25.20;99.90
9875;DHT22;4976;46.786;7.632;2023-06-14T15:27:55;25.20;99.90
9875;DHT22;4976;46.786;7.632;2023-06-14T15:30:22;25.20;99.90
9875;DHT22;4976;46.786;7.632;2023-06-14T15:32:49;25.20;99.90
9875;DHT22;4976;46.786;7.632;2023-06-14T15:35:21;25.20;99.90
9875;DHT22;4976;46.786;7.632;2023-06-14T15:37:48;25.50;99.90
9875;DHT22;4976;46.786;7.632;2023-06-14T15:40:17;25.70;99.90
9875;DHT22;4976;46.786;7.632;2023-06-14T15:42:44;25.70;99.90
9875;DHT22;4976;46.786;7.632;2023-06-14T15:45:11;25.60;99.90
9875;DHT22;4976;46.786;7.632;2023-06-14T15:47:39;25.40;99.90
9875;DHT22;4976;46.786;7.632;2023-06-14T15:50:06;25.60;99.90
9875;DHT22;4976;46.786;7.632;2023-06-14T15:52:34;25.60;99.90
9875;DHT22;4976;46.786;7.632;2023-06-14T15:55:01;25.60;99.90
9875;DHT22;4976;46.786;7.632;2023-06-14T15:57:30;25.70;99.90
9875;DHT22;4976;46.786;7.632;2023-06-14T15:59:57;25.70;99.90
9875;DHT22;4976;46.786;7.632;2023-06-14T16:02:26;25.80;99.90
9875;DHT22;4976;46.786;7.632;2023-06-14T16:04:53;25.70;99.90
9875;DHT22;4976;46.786;7.632;2023-06-14T16:07:21;25.50;99.90
9875;DHT22;4976;46.786;7.632;2023-06-14T16:09:48;25.30;99.90
9875;DHT22;4976;46.786;7.632;2023-06-14T16:12:15;25.60;99.90
9875;DHT22;4976;46.786;7.632;2023-06-14T16:14:43;25.70;99.90
9875;DHT22;4976;46.786;7.632;2023-06-14T16:17:12;25.60;99.90
9875;DHT22;4976;46.786;7.632;2023-06-14T16:19:39;25.50;99.90
9875;DHT22;4976;46.786;7.632;2023-06-14T16:22:06;25.30;99.90
9875;DHT22;4976;46.786;7.632;2023-06-14T16:24:33;25.40;99.90
9875;DHT22;4976;46.786;7.632;2023-06-14T16:27:00;25.40;99.90
9875;DHT22;4976;46.786;7.632;2023-06-14T16:29:30;25.60;99.90
9875;DHT22;4976;46.786;7.632;2023-06-14T16:31:58;25.80;99.90
9875;DHT22;4976;46.786;7.632;2023-06-14T16:34:27;25.90;99.90
9875;DHT22;4976;46.786;7.632;2023-06-14T16:36:56;26.40;99.90
9875;DHT22;4976;46.786;7.632;2023-06-14T16:39:23;27.00;99.90
9875;DHT22;4976;46.786;7.632;2023-06-14T16:41:50;28.80;99.90
9875;DHT22;4976;46.786;7.632;2023-06-14T16:44:17;30.80;99.90
9875;DHT22;4976;46.786;7.632;2023-06-14T16:46:44;33.10;99.90
9875;DHT22;4976;46.786;7.632;2023-06-14T16:49:13;32.70;99.90
9875;DHT22;4976;46.786;7.632;2023-06-14T16:51:40;33.60;99.90
9875;DHT22;4976;46.786;7.632;2023-06-14T16:54:07;31.60;99.90
9875;DHT22;4976;46.786;7.632;2023-06-14T16:56:34;30.10;99.90
9875;DHT22;4976;46.786;7.632;2023-06-14T16:59:01;30.60;99.90
9875;DHT22;4976;46.786;7.632;2023-06-14T17:01:28;30.80;99.90
9875;DHT22;4976;46.786;7.632;2023-06-14T17:03:55;31.00;99.90
9875;DHT22;4976;46.786;7.632;2023-06-14T17:06:24;31.10;99.90
9875;DHT22;4976;46.786;7.632;2023-06-14T17:08:51;31.30;99.90
9875;DHT22;4976;46.786;7.632;2023-06-14T17:11:18;31.70;99.90
9875;DHT22;4976;46.786;7.632;2023-06-14T17:13:47;32.60;99.90
9875;DHT22;4976;46.786;7.632;2023-06-14T17:16:15;31.30;99.90
9875;DHT22;4976;46.786;7.632;2023-06-14T17:18:42;30.30;99.90
9875;DHT22;4976;46.786;7.632;2023-06-14T17:21:09;30.70;99.90
9875;DHT22;4976;46.786;7.632;2023-06-14T17:23:37;31.00;99.90
9875;DHT22;4976;46.786;7.632;2023-06-14T17:26:04;30.80;99.90
9875;DHT22;4976;46.786;7.632;2023-06-14T17:28:31;30.50;99.90
9875;DHT22;4976;46.786;7.632;2023-06-14T17:30:58;31.50;99.90
9875;DHT22;4976;46.786;7.632;2023-06-14T17:33:25;31.30;99.90
9875;DHT22;4976;46.786;7.632;2023-06-14T17:35:52;31.20;99.90
9875;DHT22;4976;46.786;7.632;2023-06-14T17:38:19;30.60;99.90
9875;DHT22;4976;46.786;7.632;2023-06-14T17:40:48;30.20;99.90
9875;DHT22;4976;46.786;7.632;2023-06-14T17:43:15;30.00;99.90
9875;DHT22;4976;46.786;7.632;2023-06-14T17:45:42;31.10;99.90
9875;DHT22;4976;46.786;7.632;2023-06-14T17:48:09;31.70;99.90
9875;DHT22;4976;46.786;7.632;2023-06-14T17:50:36;32.40;99.90
9875;DHT22;4976;46.786;7.632;2023-06-14T17:53:04;31.70;99.90
9875;DHT22;4976;46.786;7.632;2023-06-14T17:55:31;32.30;99.90
9875;DHT22;4976;46.786;7.632;2023-06-14T17:58:02;32.00;99.90
9875;DHT22;4976;46.786;7.632;2023-06-14T18:00:29;31.70;99.90
9875;DHT22;4976;46.786;7.632;2023-06-14T18:02:56;30.10;99.90
9875;DHT22;4976;46.786;7.632;2023-06-14T18:05:24;27.40;99.90
9875;DHT22;4976;46.786;7.632;2023-06-14T18:07:53;26.00;99.90
9875;DHT22;4976;46.786;7.632;2023-06-14T18:10:20;25.20;99.90
9875;DHT22;4976;46.786;7.632;2023-06-14T18:12:47;24.70;99.90
9875;DHT22;4976;46.786;7.632;2023-06-14T18:15:16;24.30;99.90
9875;DHT22;4976;46.786;7.632;2023-06-14T18:17:43;23.90;99.90
9875;DHT22;4976;46.786;7.632;2023-06-14T18:20:10;23.70;99.90
9875;DHT22;4976;46.786;7.632;2023-06-14T18:22:37;23.60;99.90
9875;DHT22;4976;46.786;7.632;2023-06-14T18:25:05;23.50;99.90
9875;DHT22;4976;46.786;7.632;2023-06-14T18:27:32;23.50;99.90
9875;DHT22;4976;46.786;7.632;2023-06-14T18:29:59;23.60;99.90
9875;DHT22;4976;46.786;7.632;2023-06-14T18:32:28;23.60;99.90
9875;DHT22;4976;46.786;7.632;2023-06-14T18:34:57;23.40;99.90
9875;DHT22;4976;46.786;7.632;2023-06-14T18:37:24;23.30;99.90
9875;DHT22;4976;46.786;7.632;2023-06-14T18:39:52;23.20;99.90
9875;DHT22;4976;46.786;7.632;2023-06-14T18:42:20;23.10;99.90
9875;DHT22;4976;46.786;7.632;2023-06-14T18:44:48;23.00;99.90
9875;DHT22;4976;46.786;7.632;2023-06-14T18:47:15;22.90;99.90
9875;DHT22;4976;46.786;7.632;2023-06-14T18:49:43;22.90;99.90
9875;DHT22;4976;46.786;7.632;2023-06-14T18:52:10;22.80;99.90
9875;DHT22;4976;46.786;7.632;2023-06-14T18:54:38;22.60;99.90
9875;DHT22;4976;46.786;7.632;2023-06-14T18:57:06;22.40;99.90
9875;DHT22;4976;46.786;7.632;2023-06-14T18:59:33;22.20;99.90
9875;DHT22;4976;46.786;7.632;2023-06-14T19:02:00;21.80;99.90
9875;DHT22;4976;46.786;7.632;2023-06-14T19:04:27;21.60;99.90
9875;DHT22;4976;46.786;7.632;2023-06-14T19:06:55;21.40;99.90
9875;DHT22;4976;46.786;7.632;2023-06-14T19:09:22;21.10;99.90
9875;DHT22;4976;46.786;7.632;2023-06-14T19:11:49;20.90;99.90
9875;DHT22;4976;46.786;7.632;2023-06-14T19:14:18;20.90;99.90
9875;DHT22;4976;46.786;7.632;2023-06-14T19:16:45;20.80;99.90
9875;DHT22;4976;46.786;7.632;2023-06-14T19:19:13;20.60;99.90
9875;DHT22;4976;46.786;7.632;2023-06-14T19:21:40;20.60;99.90
9875;DHT22;4976;46.786;7.632;2023-06-14T19:24:10;20.50;99.90
9875;DHT22;4976;46.786;7.632;2023-06-14T19:26:40;20.50;99.90
9875;DHT22;4976;46.786;7.632;2023-06-14T19:29:07;20.40;99.90
9875;DHT22;4976;46.786;7.632;2023-06-14T19:31:34;20.20;99.90
9875;DHT22;4976;46.786;7.632;2023-06-14T19:34:01;20.20;99.90
9875;DHT22;4976;46.786;7.632;2023-06-14T19:36:29;20.20;99.90
9875;DHT22;4976;46.786;7.632;2023-06-14T19:38:56;20.30;99.90
9875;DHT22;4976;46.786;7.632;2023-06-14T19:41:25;20.00;99.90
9875;DHT22;4976;46.786;7.632;2023-06-14T19:43:56;19.80;99.90
9875;DHT22;4976;46.786;7.632;2023-06-14T19:46:23;19.80;99.90
9875;DHT22;4976;46.786;7.632;2023-06-14T19:48:51;19.50;99.90
9875;DHT22;4976;46.786;7.632;2023-06-14T19:51:18;19.30;99.90
9875;DHT22;4976;46.786;7.632;2023-06-14T19:53:45;19.20;99.90
9875;DHT22;4976;46.786;7.632;2023-06-14T19:56:12;18.90;99.90
9875;DHT22;4976;46.786;7.632;2023-06-14T19:58:40;18.50;99.90
9875;DHT22;4976;46.786;7.632;2023-06-14T20:01:07;18.40;99.90
9875;DHT22;4976;46.786;7.632;2023-06-14T20:03:35;18.20;99.90
9875;DHT22;4976;46.786;7.632;2023-06-14T20:06:02;18.20;99.90
9875;DHT22;4976;46.786;7.632;2023-06-14T20:08:32;18.30;99.90
9875;DHT22;4976;46.786;7.632;2023-06-14T20:10:59;18.40;99.90
9875;DHT22;4976;46.786;7.632;2023-06-14T20:13:28;18.20;99.90
9875;DHT22;4976;46.786;7.632;2023-06-14T20:16:00;18.00;99.90
9875;DHT22;4976;46.786;7.632;2023-06-14T20:18:27;17.90;99.90
9875;DHT22;4976;46.786;7.632;2023-06-14T20:20:56;17.80;99.90
9875;DHT22;4976;46.786;7.632;2023-06-14T20:23:23;17.70;99.90
9875;DHT22;4976;46.786;7.632;2023-06-14T20:25:50;17.60;99.90
9875;DHT22;4976;46.786;7.632;2023-06-14T20:28:17;17.60;99.90
9875;DHT22;4976;46.786;7.632;2023-06-14T20:30:44;17.60;99.90
9875;DHT22;4976;46.786;7.632;2023-06-14T20:33:13;17.80;99.90
9875;DHT22;4976;46.786;7.632;2023-06-14T20:35:40;17.80;99.90
9875;DHT22;4976;46.786;7.632;2023-06-14T20:38:08;17.90;99.90
9875;DHT22;4976;46.786;7.632;2023-06-14T20:40:36;17.60;99.90
9875;DHT22;4976;46.786;7.632;2023-06-14T20:43:03;17.50;99.90
9875;DHT22;4976;46.786;7.632;2023-06-14T20:45:37;17.60;99.90
9875;DHT22;4976;46.786;7.632;2023-06-14T20:48:05;17.40;99.90
9875;DHT22;4976;46.786;7.632;2023-06-14T20:50:33;17.40;99.90
9875;DHT22;4976;46.786;7.632;2023-06-14T20:53:00;17.40;99.90
9875;DHT22;4976;46.786;7.632;2023-06-14T20:55:27;17.20;99.90
9875;DHT22;4976;46.786;7.632;2023-06-14T20:58:07;17.10;99.90
9875;DHT22;4976;46.786;7.632;2023-06-14T21:00:34;17.00;99.90
9875;DHT22;4976;46.786;7.632;2023-06-14T21:03:02;17.00;99.90
9875;DHT22;4976;46.786;7.632;2023-06-14T21:05:30;16.90;99.90
9875;DHT22;4976;46.786;7.632;2023-06-14T21:07:59;17.10;99.90
9875;DHT22;4976;46.786;7.632;2023-06-14T21:10:26;16.80;99.90
9875;DHT22;4976;46.786;7.632;2023-06-14T21:12:55;16.70;99.90
9875;DHT22;4976;46.786;7.632;2023-06-14T21:15:22;16.60;99.90
9875;DHT22;4976;46.786;7.632;2023-06-14T21:17:50;16.60;99.90
9875;DHT22;4976;46.786;7.632;2023-06-14T21:20:17;16.60;99.90
9875;DHT22;4976;46.786;7.632;2023-06-14T21:22:44;16.70;99.90
9875;DHT22;4976;46.786;7.632;2023-06-14T21:25:13;16.60;99.90
9875;DHT22;4976;46.786;7.632;2023-06-14T21:27:40;16.40;99.90
9875;DHT22;4976;46.786;7.632;2023-06-14T21:30:15;16.20;99.90
9875;DHT22;4976;46.786;7.632;2023-06-14T21:32:42;16.20;99.90
9875;DHT22;4976;46.786;7.632;2023-06-14T21:35:11;16.20;99.90
9875;DHT22;4976;46.786;7.632;2023-06-14T21:37:38;16.20;99.90
9875;DHT22;4976;46.786;7.632;2023-06-14T21:40:06;16.30;99.90
9875;DHT22;4976;46.786;7.632;2023-06-14T21:42:35;16.40;99.90
9875;DHT22;4976;46.786;7.632;2023-06-14T21:45:02;16.30;99.90
9875;DHT22;4976;46.786;7.632;2023-06-14T21:47:34;16.10;99.90
9875;DHT22;4976;46.786;7.632;2023-06-14T21:50:01;16.10;99.90
9875;DHT22;4976;46.786;7.632;2023-06-14T21:52:28;16.20;99.90
9875;DHT22;4976;46.786;7.632;2023-06-14T21:54:56;15.90;1.00
9875;DHT22;4976;46.786;7.632;2023-06-14T21:57:23;15.70;1.00
9875;DHT22;4976;46.786;7.632;2023-06-14T21:59:52;15.60;1.00
